sensor_id;sensor_type;location;lat;lon;timestamp;temperature;humidity
73133;DHT22;61320;52.008;4.530;2022-11-06T00:01:52;12.75;78.18
73133;DHT22;61320;52.008;4.530;2022-11-06T00:04:17;12.77;77.65
73133;DHT22;61320;52.008;4.530;2022-11-06T00:06:43;12.66;78.18
73133;DHT22;61320;52.008;4.530;2022-11-06T00:09:19;12.72;78.02
73133;DHT22;61320;52.008;4.530;2022-11-06T00:11:46;12.72;78.17
73133;DHT22;61320;52.008;4.530;2022-11-06T00:14:13;12.76;77.89
73133;DHT22;61320;52.008;4.530;2022-11-06T00:16:40;12.69;78.23
73133;DHT22;61320;52.008;4.530;2022-11-06T00:19:06;12.62;77.90
73133;DHT22;61320;52.008;4.530;2022-11-06T00:21:32;12.67;79.07
73133;DHT22;61320;52.008;4.530;2022-11-06T00:24:00;12.69;78.30
73133;DHT22;61320;52.008;4.530;2022-11-06T00:26:27;12.63;78.46
73133;DHT22;61320;52.008;4.530;2022-11-06T00:28:53;12.63;78.81
73133;DHT22;61320;52.008;4.530;2022-11-06T00:31:22;12.72;78.76
73133;DHT22;61320;52.008;4.530;2022-11-06T00:33:48;12.75;77.53
73133;DHT22;61320;52.008;4.530;2022-11-06T00:36:20;12.70;79.22
73133;DHT22;61320;52.008;4.530;2022-11-06T00:38:46;12.80;78.32
73133;DHT22;61320;52.008;4.530;2022-11-06T00:41:24;12.84;79.07
73133;DHT22;61320;52.008;4.530;2022-11-06T00:43:53;12.97;78.65
73133;DHT22;61320;52.008;4.530;2022-11-06T00:46:19;13.00;78.62
73133;DHT22;61320;52.008;4.530;2022-11-06T00:48:46;12.94;78.21
73133;DHT22;61320;52.008;4.530;2022-11-06T00:51:15;12.93;78.20
73133;DHT22;61320;52.008;4.530;2022-11-06T00:53:42;12.80;78.88
73133;DHT22;61320;52.008;4.530;2022-11-06T00:56:14;12.87;78.88
73133;DHT22;61320;52.008;4.530;2022-11-06T00:58:41;12.90;78.83
73133;DHT22;61320;52.008;4.530;2022-11-06T01:01:09;12.86;79.29
73133;DHT22;61320;52.008;4.530;2022-11-06T01:03:36;12.89;80.34
73133;DHT22;61320;52.008;4.530;2022-11-06T01:06:04;12.90;79.94
73133;DHT22;61320;52.008;4.530;2022-11-06T01:08:30;12.83;80.22
73133;DHT22;61320;52.008;4.530;2022-11-06T01:10:56;12.81;79.92
73133;DHT22;61320;52.008;4.530;2022-11-06T01:16:31;12.43;81.50
73133;DHT22;61320;52.008;4.530;2022-11-06T01:19:25;12.33;82.05
73133;DHT22;61320;52.008;4.530;2022-11-06T01:22:26;12.35;82.22
73133;DHT22;61320;52.008;4.530;2022-11-06T01:24:54;12.42;82.48
73133;DHT22;61320;52.008;4.530;2022-11-06T01:27:38;12.49;82.31
73133;DHT22;61320;52.008;4.530;2022-11-06T01:33:24;12.48;82.30
73133;DHT22;61320;52.008;4.530;2022-11-06T01:35:50;12.55;81.49
73133;DHT22;61320;52.008;4.530;2022-11-06T01:38:16;12.46;82.63
73133;DHT22;61320;52.008;4.530;2022-11-06T01:40:44;12.39;81.90
73133;DHT22;61320;52.008;4.530;2022-11-06T01:43:28;12.35;82.36
73133;DHT22;61320;52.008;4.530;2022-11-06T01:46:07;12.39;82.69
73133;DHT22;61320;52.008;4.530;2022-11-06T01:48:33;12.39;82.24
73133;DHT22;61320;52.008;4.530;2022-11-06T01:50:59;12.25;82.71
73133;DHT22;61320;52.008;4.530;2022-11-06T01:53:28;12.31;83.01
73133;DHT22;61320;52.008;4.530;2022-11-06T01:56:08;12.28;83.44
73133;DHT22;61320;52.008;4.530;2022-11-06T01:58:38;12.20;83.54
73133;DHT22;61320;52.008;4.530;2022-11-06T02:01:06;12.32;83.35
73133;DHT22;61320;52.008;4.530;2022-11-06T02:03:32;12.25;82.94
73133;DHT22;61320;52.008;4.530;2022-11-06T02:05:59;12.32;83.30
73133;DHT22;61320;52.008;4.530;2022-11-06T02:08:32;12.36;84.13
73133;DHT22;61320;52.008;4.530;2022-11-06T02:10:58;12.38;83.25
73133;DHT22;61320;52.008;4.530;2022-11-06T02:16:33;12.17;83.96
73133;DHT22;61320;52.008;4.530;2022-11-06T02:24:59;12.29;83.76
73133;DHT22;61320;52.008;4.530;2022-11-06T02:27:29;12.33;84.06
73133;DHT22;61320;52.008;4.530;2022-11-06T02:30:06;12.31;82.77
73133;DHT22;61320;52.008;4.530;2022-11-06T02:32:43;12.31;83.78
73133;DHT22;61320;52.008;4.530;2022-11-06T02:35:22;12.29;83.70
73133;DHT22;61320;52.008;4.530;2022-11-06T02:37:54;12.41;84.13
73133;DHT22;61320;52.008;4.530;2022-11-06T02:40:25;12.48;82.96
73133;DHT22;61320;52.008;4.530;2022-11-06T02:42:56;12.36;82.74
73133;DHT22;61320;52.008;4.530;2022-11-06T02:45:26;12.42;83.67
73133;DHT22;61320;52.008;4.530;2022-11-06T02:47:58;12.43;83.24
73133;DHT22;61320;52.008;4.530;2022-11-06T02:50:31;12.42;83.91
73133;DHT22;61320;52.008;4.530;2022-11-06T02:53:06;12.48;83.67
73133;DHT22;61320;52.008;4.530;2022-11-06T02:55:43;12.32;83.38
73133;DHT22;61320;52.008;4.530;2022-11-06T02:58:28;12.36;84.12
73133;DHT22;61320;52.008;4.530;2022-11-06T03:01:03;12.39;83.75
73133;DHT22;61320;52.008;4.530;2022-11-06T03:03:33;12.42;83.89
73133;DHT22;61320;52.008;4.530;2022-11-06T03:08:39;12.49;84.01
73133;DHT22;61320;52.008;4.530;2022-11-06T03:11:30;12.43;83.52
73133;DHT22;61320;52.008;4.530;2022-11-06T03:14:05;12.43;83.79
73133;DHT22;61320;52.008;4.530;2022-11-06T03:19:31;12.38;83.81
73133;DHT22;61320;52.008;4.530;2022-11-06T03:22:34;12.35;83.44
73133;DHT22;61320;52.008;4.530;2022-11-06T03:25:26;12.24;83.98
73133;DHT22;61320;52.008;4.530;2022-11-06T03:30:49;12.32;83.67
73133;DHT22;61320;52.008;4.530;2022-11-06T03:33:24;12.33;84.39
73133;DHT22;61320;52.008;4.530;2022-11-06T03:38:47;12.26;84.01
73133;DHT22;61320;52.008;4.530;2022-11-06T03:41:48;12.31;84.10
73133;DHT22;61320;52.008;4.530;2022-11-06T03:44:18;12.45;83.87
73133;DHT22;61320;52.008;4.530;2022-11-06T03:46:52;12.39;83.59
73133;DHT22;61320;52.008;4.530;2022-11-06T03:49:27;12.39;84.09
73133;DHT22;61320;52.008;4.530;2022-11-06T03:52:04;12.39;83.81
73133;DHT22;61320;52.008;4.530;2022-11-06T03:54:38;12.46;83.93
73133;DHT22;61320;52.008;4.530;2022-11-06T03:59:43;12.48;83.18
73133;DHT22;61320;52.008;4.530;2022-11-06T04:02:14;12.38;82.88
73133;DHT22;61320;52.008;4.530;2022-11-06T04:04:50;12.32;83.67
73133;DHT22;61320;52.008;4.530;2022-11-06T04:07:27;12.36;83.77
73133;DHT22;61320;52.008;4.530;2022-11-06T04:09:59;12.39;83.39
73133;DHT22;61320;52.008;4.530;2022-11-06T04:12:48;12.45;83.13
73133;DHT22;61320;52.008;4.530;2022-11-06T04:15:50;12.42;83.33
73133;DHT22;61320;52.008;4.530;2022-11-06T04:18:23;12.42;83.21
73133;DHT22;61320;52.008;4.530;2022-11-06T04:21:06;12.48;83.28
73133;DHT22;61320;52.008;4.530;2022-11-06T04:24:03;12.39;82.79
73133;DHT22;61320;52.008;4.530;2022-11-06T04:29:54;12.39;83.20
73133;DHT22;61320;52.008;4.530;2022-11-06T04:35:20;12.50;83.23
73133;DHT22;61320;52.008;4.530;2022-11-06T04:46:58;12.63;82.57
73133;DHT22;61320;52.008;4.530;2022-11-06T04:49:29;12.53;81.92
73133;DHT22;61320;52.008;4.530;2022-11-06T04:51:57;12.53;83.45
73133;DHT22;61320;52.008;4.530;2022-11-06T04:54:23;12.49;82.56
73133;DHT22;61320;52.008;4.530;2022-11-06T04:56:50;12.45;82.56
73133;DHT22;61320;52.008;4.530;2022-11-06T04:59:16;12.45;83.67
73133;DHT22;61320;52.008;4.530;2022-11-06T05:01:43;12.49;83.88
73133;DHT22;61320;52.008;4.530;2022-11-06T05:04:10;12.45;84.47
73133;DHT22;61320;52.008;4.530;2022-11-06T05:06:36;12.48;83.27
73133;DHT22;61320;52.008;4.530;2022-11-06T05:09:02;12.43;83.63
73133;DHT22;61320;52.008;4.530;2022-11-06T05:11:27;12.42;84.64
73133;DHT22;61320;52.008;4.530;2022-11-06T05:13:53;12.52;84.48
73133;DHT22;61320;52.008;4.530;2022-11-06T05:16:18;12.52;84.14
73133;DHT22;61320;52.008;4.530;2022-11-06T05:18:44;12.43;83.39
73133;DHT22;61320;52.008;4.530;2022-11-06T05:21:10;12.35;83.76
73133;DHT22;61320;52.008;4.530;2022-11-06T05:23:53;12.24;84.23
73133;DHT22;61320;52.008;4.530;2022-11-06T05:26:19;12.35;84.65
73133;DHT22;61320;52.008;4.530;2022-11-06T05:28:44;12.42;84.65
73133;DHT22;61320;52.008;4.530;2022-11-06T05:31:10;12.48;84.19
73133;DHT22;61320;52.008;4.530;2022-11-06T05:33:35;12.48;83.45
73133;DHT22;61320;52.008;4.530;2022-11-06T05:36:02;12.43;84.31
73133;DHT22;61320;52.008;4.530;2022-11-06T05:38:28;12.45;83.99
73133;DHT22;61320;52.008;4.530;2022-11-06T05:40:53;12.41;83.68
73133;DHT22;61320;52.008;4.530;2022-11-06T05:43:19;12.42;84.29
73133;DHT22;61320;52.008;4.530;2022-11-06T05:45:44;12.43;84.35
73133;DHT22;61320;52.008;4.530;2022-11-06T05:48:10;12.39;83.47
73133;DHT22;61320;52.008;4.530;2022-11-06T05:50:35;12.42;83.29
73133;DHT22;61320;52.008;4.530;2022-11-06T05:53:01;12.39;84.49
73133;DHT22;61320;52.008;4.530;2022-11-06T05:55:26;12.41;83.97
73133;DHT22;61320;52.008;4.530;2022-11-06T05:57:51;12.48;84.34
73133;DHT22;61320;52.008;4.530;2022-11-06T06:00:17;12.52;84.41
73133;DHT22;61320;52.008;4.530;2022-11-06T06:02:42;12.49;83.42
73133;DHT22;61320;52.008;4.530;2022-11-06T06:05:08;12.50;83.64
73133;DHT22;61320;52.008;4.530;2022-11-06T06:07:34;12.46;83.69
73133;DHT22;61320;52.008;4.530;2022-11-06T06:10:00;12.50;83.67
73133;DHT22;61320;52.008;4.530;2022-11-06T06:12:25;12.46;84.13
73133;DHT22;61320;52.008;4.530;2022-11-06T06:14:51;12.46;84.05
73133;DHT22;61320;52.008;4.530;2022-11-06T06:17:17;12.49;83.33
73133;DHT22;61320;52.008;4.530;2022-11-06T06:19:42;12.43;83.69
73133;DHT22;61320;52.008;4.530;2022-11-06T06:22:08;12.46;84.00
73133;DHT22;61320;52.008;4.530;2022-11-06T06:24:34;12.52;83.74
73133;DHT22;61320;52.008;4.530;2022-11-06T06:27:00;12.50;84.00
73133;DHT22;61320;52.008;4.530;2022-11-06T06:29:25;12.57;84.09
73133;DHT22;61320;52.008;4.530;2022-11-06T06:31:51;12.64;83.34
73133;DHT22;61320;52.008;4.530;2022-11-06T06:34:16;12.56;83.41
73133;DHT22;61320;52.008;4.530;2022-11-06T06:36:42;12.43;83.15
73133;DHT22;61320;52.008;4.530;2022-11-06T06:39:07;12.45;84.19
73133;DHT22;61320;52.008;4.530;2022-11-06T06:41:33;12.53;83.41
73133;DHT22;61320;52.008;4.530;2022-11-06T06:43:58;12.43;82.93
73133;DHT22;61320;52.008;4.530;2022-11-06T06:46:24;12.46;83.32
73133;DHT22;61320;52.008;4.530;2022-11-06T06:48:49;12.49;83.90
73133;DHT22;61320;52.008;4.530;2022-11-06T06:51:15;12.53;83.17
73133;DHT22;61320;52.008;4.530;2022-11-06T06:53:40;12.45;82.58
73133;DHT22;61320;52.008;4.530;2022-11-06T06:56:06;12.35;82.70
73133;DHT22;61320;52.008;4.530;2022-11-06T06:58:32;12.41;83.64
73133;DHT22;61320;52.008;4.530;2022-11-06T07:01:02;12.49;83.50
73133;DHT22;61320;52.008;4.530;2022-11-06T07:03:32;12.59;83.32
73133;DHT22;61320;52.008;4.530;2022-11-06T07:05:58;12.53;82.63
73133;DHT22;61320;52.008;4.530;2022-11-06T07:08:28;12.55;83.42
73133;DHT22;61320;52.008;4.530;2022-11-06T07:11:03;12.57;81.88
73133;DHT22;61320;52.008;4.530;2022-11-06T07:13:29;12.52;82.39
73133;DHT22;61320;52.008;4.530;2022-11-06T07:15:54;12.52;82.77
73133;DHT22;61320;52.008;4.530;2022-11-06T07:18:20;12.66;81.95
73133;DHT22;61320;52.008;4.530;2022-11-06T07:20:52;12.73;82.73
73133;DHT22;61320;52.008;4.530;2022-11-06T07:23:18;12.75;82.23
73133;DHT22;61320;52.008;4.530;2022-11-06T07:25:55;12.76;81.71
73133;DHT22;61320;52.008;4.530;2022-11-06T07:28:20;12.76;81.74
73133;DHT22;61320;52.008;4.530;2022-11-06T07:30:46;12.79;81.85
73133;DHT22;61320;52.008;4.530;2022-11-06T07:33:15;12.84;81.30
73133;DHT22;61320;52.008;4.530;2022-11-06T07:35:42;12.75;82.23
73133;DHT22;61320;52.008;4.530;2022-11-06T07:38:19;12.79;82.04
73133;DHT22;61320;52.008;4.530;2022-11-06T07:40:45;12.80;81.63
73133;DHT22;61320;52.008;4.530;2022-11-06T07:43:35;12.97;82.12
73133;DHT22;61320;52.008;4.530;2022-11-06T07:46:19;13.15;81.60
73133;DHT22;61320;52.008;4.530;2022-11-06T07:49:22;13.21;81.40
73133;DHT22;61320;52.008;4.530;2022-11-06T07:51:47;13.25;81.03
73133;DHT22;61320;52.008;4.530;2022-11-06T07:54:13;13.30;80.84
73133;DHT22;61320;52.008;4.530;2022-11-06T07:56:39;13.30;80.12
73133;DHT22;61320;52.008;4.530;2022-11-06T07:59:04;13.17;79.96
73133;DHT22;61320;52.008;4.530;2022-11-06T08:01:30;13.15;81.02
73133;DHT22;61320;52.008;4.530;2022-11-06T08:03:55;13.25;81.65
73133;DHT22;61320;52.008;4.530;2022-11-06T08:06:21;13.27;81.12
73133;DHT22;61320;52.008;4.530;2022-11-06T08:08:47;13.21;81.41
73133;DHT22;61320;52.008;4.530;2022-11-06T08:11:13;13.28;81.27
73133;DHT22;61320;52.008;4.530;2022-11-06T08:13:39;13.34;81.60
73133;DHT22;61320;52.008;4.530;2022-11-06T08:16:08;13.30;81.55
73133;DHT22;61320;52.008;4.530;2022-11-06T08:18:35;13.27;81.26
73133;DHT22;61320;52.008;4.530;2022-11-06T08:21:01;13.17;82.32
73133;DHT22;61320;52.008;4.530;2022-11-06T08:23:27;13.11;83.64
73133;DHT22;61320;52.008;4.530;2022-11-06T08:25:57;13.04;83.49
73133;DHT22;61320;52.008;4.530;2022-11-06T08:28:25;13.00;83.02
73133;DHT22;61320;52.008;4.530;2022-11-06T08:30:51;13.04;84.28
73133;DHT22;61320;52.008;4.530;2022-11-06T08:33:18;13.07;83.82
73133;DHT22;61320;52.008;4.530;2022-11-06T08:35:44;12.99;84.24
73133;DHT22;61320;52.008;4.530;2022-11-06T08:38:10;13.00;84.15
73133;DHT22;61320;52.008;4.530;2022-11-06T08:40:44;13.14;83.76
73133;DHT22;61320;52.008;4.530;2022-11-06T08:43:10;13.17;84.37
73133;DHT22;61320;52.008;4.530;2022-11-06T08:45:40;13.20;83.65
73133;DHT22;61320;52.008;4.530;2022-11-06T08:48:07;13.17;82.62
73133;DHT22;61320;52.008;4.530;2022-11-06T08:50:38;13.21;83.95
73133;DHT22;61320;52.008;4.530;2022-11-06T08:53:05;13.21;84.05
73133;DHT22;61320;52.008;4.530;2022-11-06T08:55:32;13.18;82.55
73133;DHT22;61320;52.008;4.530;2022-11-06T08:57:59;13.21;83.67
73133;DHT22;61320;52.008;4.530;2022-11-06T09:00:25;13.30;83.38
73133;DHT22;61320;52.008;4.530;2022-11-06T09:03:01;13.31;82.41
73133;DHT22;61320;52.008;4.530;2022-11-06T09:05:28;13.28;82.97
73133;DHT22;61320;52.008;4.530;2022-11-06T09:07:55;13.38;83.81
73133;DHT22;61320;52.008;4.530;2022-11-06T09:10:20;13.28;83.05
73133;DHT22;61320;52.008;4.530;2022-11-06T09:12:46;13.35;82.95
73133;DHT22;61320;52.008;4.530;2022-11-06T09:15:12;13.27;82.32
73133;DHT22;61320;52.008;4.530;2022-11-06T09:17:44;13.18;82.80
73133;DHT22;61320;52.008;4.530;2022-11-06T09:20:12;13.12;83.62
73133;DHT22;61320;52.008;4.530;2022-11-06T09:22:38;13.20;82.87
73133;DHT22;61320;52.008;4.530;2022-11-06T09:25:04;13.22;82.54
73133;DHT22;61320;52.008;4.530;2022-11-06T09:27:30;13.25;82.49
73133;DHT22;61320;52.008;4.530;2022-11-06T09:29:55;13.31;83.62
73133;DHT22;61320;52.008;4.530;2022-11-06T09:32:21;13.39;82.60
73133;DHT22;61320;52.008;4.530;2022-11-06T09:34:46;13.38;82.86
73133;DHT22;61320;52.008;4.530;2022-11-06T09:37:12;13.51;82.53
73133;DHT22;61320;52.008;4.530;2022-11-06T09:39:37;13.62;83.12
73133;DHT22;61320;52.008;4.530;2022-11-06T09:47:33;13.82;82.53
73133;DHT22;61320;52.008;4.530;2022-11-06T09:50:04;13.73;82.06
73133;DHT22;61320;52.008;4.530;2022-11-06T09:52:42;13.82;81.84
73133;DHT22;61320;52.008;4.530;2022-11-06T09:55:40;13.87;81.12
73133;DHT22;61320;52.008;4.530;2022-11-06T09:58:22;13.86;81.20
73133;DHT22;61320;52.008;4.530;2022-11-06T10:00:53;13.82;81.52
73133;DHT22;61320;52.008;4.530;2022-11-06T10:03:33;13.80;81.28
73133;DHT22;61320;52.008;4.530;2022-11-06T10:06:00;13.83;81.38
73133;DHT22;61320;52.008;4.530;2022-11-06T10:08:28;13.73;81.28
73133;DHT22;61320;52.008;4.530;2022-11-06T10:14:10;13.70;80.59
73133;DHT22;61320;52.008;4.530;2022-11-06T10:16:58;13.73;81.94
73133;DHT22;61320;52.008;4.530;2022-11-06T10:19:48;13.72;80.86
73133;DHT22;61320;52.008;4.530;2022-11-06T10:22:30;13.78;82.62
73133;DHT22;61320;52.008;4.530;2022-11-06T10:30:34;13.78;82.28
73133;DHT22;61320;52.008;4.530;2022-11-06T10:35:53;13.82;82.55
73133;DHT22;61320;52.008;4.530;2022-11-06T10:38:23;13.73;83.05
73133;DHT22;61320;52.008;4.530;2022-11-06T10:40:50;13.80;83.31
73133;DHT22;61320;52.008;4.530;2022-11-06T10:46:15;13.75;83.39
73133;DHT22;61320;52.008;4.530;2022-11-06T10:48:48;13.70;83.43
73133;DHT22;61320;52.008;4.530;2022-11-06T10:51:44;13.68;82.74
73133;DHT22;61320;52.008;4.530;2022-11-06T10:54:36;13.55;83.41
73133;DHT22;61320;52.008;4.530;2022-11-06T10:57:30;13.69;83.64
73133;DHT22;61320;52.008;4.530;2022-11-06T10:59:58;13.63;83.97
73133;DHT22;61320;52.008;4.530;2022-11-06T11:02:30;13.57;83.99
73133;DHT22;61320;52.008;4.530;2022-11-06T11:04:55;13.55;83.68
73133;DHT22;61320;52.008;4.530;2022-11-06T11:07:21;13.58;84.14
73133;DHT22;61320;52.008;4.530;2022-11-06T11:09:52;13.55;84.06
73133;DHT22;61320;52.008;4.530;2022-11-06T11:12:32;13.59;83.76
73133;DHT22;61320;52.008;4.530;2022-11-06T11:15:22;13.44;84.13
73133;DHT22;61320;52.008;4.530;2022-11-06T11:21:37;13.37;84.46
73133;DHT22;61320;52.008;4.530;2022-11-06T11:24:10;13.39;84.06
73133;DHT22;61320;52.008;4.530;2022-11-06T11:26:45;13.38;84.41
73133;DHT22;61320;52.008;4.530;2022-11-06T11:29:32;13.24;84.20
73133;DHT22;61320;52.008;4.530;2022-11-06T11:32:02;13.18;84.54
73133;DHT22;61320;52.008;4.530;2022-11-06T11:34:33;13.17;84.42
73133;DHT22;61320;52.008;4.530;2022-11-06T11:37:03;13.14;85.38
73133;DHT22;61320;52.008;4.530;2022-11-06T11:39:33;13.18;84.93
73133;DHT22;61320;52.008;4.530;2022-11-06T11:42:30;13.00;84.61
73133;DHT22;61320;52.008;4.530;2022-11-06T11:47:36;13.07;85.76
73133;DHT22;61320;52.008;4.530;2022-11-06T11:52:58;13.37;85.40
73133;DHT22;61320;52.008;4.530;2022-11-06T11:55:26;13.44;85.18
73133;DHT22;61320;52.008;4.530;2022-11-06T11:58:00;13.55;85.66
73133;DHT22;61320;52.008;4.530;2022-11-06T12:00:26;13.62;85.84
73133;DHT22;61320;52.008;4.530;2022-11-06T12:03:04;13.62;84.27
73133;DHT22;61320;52.008;4.530;2022-11-06T12:05:38;13.52;84.50
73133;DHT22;61320;52.008;4.530;2022-11-06T12:08:05;13.55;84.07
73133;DHT22;61320;52.008;4.530;2022-11-06T12:10:37;13.49;84.49
73133;DHT22;61320;52.008;4.530;2022-11-06T12:13:12;13.44;83.21
73133;DHT22;61320;52.008;4.530;2022-11-06T12:18:29;13.44;85.25
73133;DHT22;61320;52.008;4.530;2022-11-06T12:23:57;13.42;83.14
73133;DHT22;61320;52.008;4.530;2022-11-06T12:26:47;13.45;84.81
73133;DHT22;61320;52.008;4.530;2022-11-06T12:29:23;13.45;84.41
73133;DHT22;61320;52.008;4.530;2022-11-06T12:31:59;13.44;83.42
73133;DHT22;61320;52.008;4.530;2022-11-06T12:34:37;13.24;83.48
73133;DHT22;61320;52.008;4.530;2022-11-06T12:40:19;13.21;84.19
73133;DHT22;61320;52.008;4.530;2022-11-06T12:43:13;13.08;84.23
73133;DHT22;61320;52.008;4.530;2022-11-06T12:45:53;13.08;85.30
73133;DHT22;61320;52.008;4.530;2022-11-06T12:48:55;12.94;84.28
73133;DHT22;61320;52.008;4.530;2022-11-06T13:05:18;13.14;85.57
73133;DHT22;61320;52.008;4.530;2022-11-06T13:13:30;13.30;85.15
73133;DHT22;61320;52.008;4.530;2022-11-06T13:16:17;13.37;84.85
73133;DHT22;61320;52.008;4.530;2022-11-06T13:32:45;13.11;85.24
73133;DHT22;61320;52.008;4.530;2022-11-06T13:35:19;13.06;84.05
73133;DHT22;61320;52.008;4.530;2022-11-06T13:37:50;12.91;84.71
73133;DHT22;61320;52.008;4.530;2022-11-06T13:40:24;12.86;84.06
73133;DHT22;61320;52.008;4.530;2022-11-06T13:43:16;12.76;84.46
73133;DHT22;61320;52.008;4.530;2022-11-06T13:46:04;12.70;85.99
73133;DHT22;61320;52.008;4.530;2022-11-06T13:49:47;12.69;85.82
73133;DHT22;61320;52.008;4.530;2022-11-06T13:51:53;12.62;84.73
73133;DHT22;61320;52.008;4.530;2022-11-06T14:03:18;12.53;86.07
73133;DHT22;61320;52.008;4.530;2022-11-06T14:10:57;12.46;85.40
73133;DHT22;61320;52.008;4.530;2022-11-06T14:13:30;12.42;85.30
73133;DHT22;61320;52.008;4.530;2022-11-06T14:16:02;12.32;85.97
73133;DHT22;61320;52.008;4.530;2022-11-06T14:18:29;12.24;86.44
73133;DHT22;61320;52.008;4.530;2022-11-06T14:24:05;12.21;85.65
73133;DHT22;61320;52.008;4.530;2022-11-06T14:26:45;12.17;86.51
73133;DHT22;61320;52.008;4.530;2022-11-06T14:32:01;11.97;85.32
73133;DHT22;61320;52.008;4.530;2022-11-06T14:34:30;11.88;85.41
73133;DHT22;61320;52.008;4.530;2022-11-06T14:36:57;11.93;86.81
73133;DHT22;61320;52.008;4.530;2022-11-06T14:44:51;11.97;86.00
73133;DHT22;61320;52.008;4.530;2022-11-06T14:47:27;11.99;85.94
73133;DHT22;61320;52.008;4.530;2022-11-06T14:49:56;11.88;85.71
73133;DHT22;61320;52.008;4.530;2022-11-06T14:52:24;11.91;86.43
73133;DHT22;61320;52.008;4.530;2022-11-06T14:55:23;11.87;85.20
73133;DHT22;61320;52.008;4.530;2022-11-06T14:57:52;11.71;85.99
73133;DHT22;61320;52.008;4.530;2022-11-06T15:00:55;11.67;85.76
73133;DHT22;61320;52.008;4.530;2022-11-06T15:05:58;11.74;85.70
73133;DHT22;61320;52.008;4.530;2022-11-06T15:16:26;11.44;84.93
73133;DHT22;61320;52.008;4.530;2022-11-06T15:18:53;11.49;86.87
73133;DHT22;61320;52.008;4.530;2022-11-06T15:21:30;11.60;87.01
73133;DHT22;61320;52.008;4.530;2022-11-06T15:24:07;11.57;85.99
73133;DHT22;61320;52.008;4.530;2022-11-06T15:26:43;11.49;84.70
73133;DHT22;61320;52.008;4.530;2022-11-06T15:29:22;11.33;85.51
73133;DHT22;61320;52.008;4.530;2022-11-06T15:31:56;11.36;86.19
73133;DHT22;61320;52.008;4.530;2022-11-06T15:34:30;11.23;86.08
73133;DHT22;61320;52.008;4.530;2022-11-06T15:37:08;11.42;86.92
73133;DHT22;61320;52.008;4.530;2022-11-06T15:39:41;11.36;85.34
73133;DHT22;61320;52.008;4.530;2022-11-06T15:42:19;11.30;86.33
73133;DHT22;61320;52.008;4.530;2022-11-06T15:44:47;11.27;85.80
73133;DHT22;61320;52.008;4.530;2022-11-06T15:47:26;11.30;85.87
73133;DHT22;61320;52.008;4.530;2022-11-06T15:50:16;11.06;85.26
73133;DHT22;61320;52.008;4.530;2022-11-06T15:52:44;10.98;85.87
73133;DHT22;61320;52.008;4.530;2022-11-06T15:55:35;11.08;86.52
73133;DHT22;61320;52.008;4.530;2022-11-06T15:58:07;11.09;86.29
73133;DHT22;61320;52.008;4.530;2022-11-06T16:00:35;11.05;85.09
73133;DHT22;61320;52.008;4.530;2022-11-06T16:03:04;10.98;86.09
73133;DHT22;61320;52.008;4.530;2022-11-06T16:05:33;10.88;85.69
73133;DHT22;61320;52.008;4.530;2022-11-06T16:08:00;10.81;85.26
73133;DHT22;61320;52.008;4.530;2022-11-06T16:10:26;10.71;85.16
73133;DHT22;61320;52.008;4.530;2022-11-06T16:12:54;10.69;85.79
73133;DHT22;61320;52.008;4.530;2022-11-06T16:20:43;10.72;85.05
73133;DHT22;61320;52.008;4.530;2022-11-06T16:23:13;10.74;86.50
73133;DHT22;61320;52.008;4.530;2022-11-06T16:25:40;10.86;86.25
73133;DHT22;61320;52.008;4.530;2022-11-06T16:28:20;10.84;85.10
73133;DHT22;61320;52.008;4.530;2022-11-06T16:30:47;10.96;86.33
73133;DHT22;61320;52.008;4.530;2022-11-06T16:33:21;10.92;85.56
73133;DHT22;61320;52.008;4.530;2022-11-06T16:35:49;10.91;85.33
73133;DHT22;61320;52.008;4.530;2022-11-06T16:38:39;10.88;85.94
73133;DHT22;61320;52.008;4.530;2022-11-06T16:41:06;10.94;86.04
73133;DHT22;61320;52.008;4.530;2022-11-06T16:43:32;11.01;85.96
73133;DHT22;61320;52.008;4.530;2022-11-06T16:46:04;10.92;85.87
73133;DHT22;61320;52.008;4.530;2022-11-06T16:48:40;10.82;85.49
73133;DHT22;61320;52.008;4.530;2022-11-06T16:51:14;10.86;86.24
73133;DHT22;61320;52.008;4.530;2022-11-06T16:56:27;10.84;86.05
73133;DHT22;61320;52.008;4.530;2022-11-06T17:01:22;10.86;85.47
73133;DHT22;61320;52.008;4.530;2022-11-06T17:03:59;10.91;86.46
73133;DHT22;61320;52.008;4.530;2022-11-06T17:06:28;10.95;85.86
73133;DHT22;61320;52.008;4.530;2022-11-06T17:09:01;11.01;86.36
73133;DHT22;61320;52.008;4.530;2022-11-06T17:11:27;10.99;84.51
73133;DHT22;61320;52.008;4.530;2022-11-06T17:13:52;10.95;85.60
73133;DHT22;61320;52.008;4.530;2022-11-06T17:16:21;10.98;86.01
73133;DHT22;61320;52.008;4.530;2022-11-06T17:18:48;11.02;85.72
73133;DHT22;61320;52.008;4.530;2022-11-06T17:21:23;10.88;85.04
73133;DHT22;61320;52.008;4.530;2022-11-06T17:23:49;10.77;86.35
73133;DHT22;61320;52.008;4.530;2022-11-06T17:26:25;10.74;86.17
73133;DHT22;61320;52.008;4.530;2022-11-06T17:28:52;10.81;86.29
73133;DHT22;61320;52.008;4.530;2022-11-06T17:31:19;10.85;87.31
73133;DHT22;61320;52.008;4.530;2022-11-06T17:33:45;10.94;86.54
73133;DHT22;61320;52.008;4.530;2022-11-06T17:36:25;10.95;85.70
73133;DHT22;61320;52.008;4.530;2022-11-06T17:38:56;10.81;86.41
73133;DHT22;61320;52.008;4.530;2022-11-06T17:41:23;10.69;86.14
73133;DHT22;61320;52.008;4.530;2022-11-06T17:44:07;10.77;86.67
73133;DHT22;61320;52.008;4.530;2022-11-06T17:46:44;10.82;86.36
73133;DHT22;61320;52.008;4.530;2022-11-06T17:49:11;10.72;86.40
73133;DHT22;61320;52.008;4.530;2022-11-06T17:51:37;10.67;85.98
73133;DHT22;61320;52.008;4.530;2022-11-06T17:54:22;10.75;86.93
73133;DHT22;61320;52.008;4.530;2022-11-06T17:56:50;10.78;86.59
73133;DHT22;61320;52.008;4.530;2022-11-06T17:59:19;10.84;86.56
73133;DHT22;61320;52.008;4.530;2022-11-06T18:01:46;10.96;85.89
73133;DHT22;61320;52.008;4.530;2022-11-06T18:04:19;10.92;86.34
73133;DHT22;61320;52.008;4.530;2022-11-06T18:06:48;10.96;85.80
73133;DHT22;61320;52.008;4.530;2022-11-06T18:09:18;11.09;86.37
73133;DHT22;61320;52.008;4.530;2022-11-06T18:11:44;11.09;85.31
73133;DHT22;61320;52.008;4.530;2022-11-06T18:14:11;11.08;85.68
73133;DHT22;61320;52.008;4.530;2022-11-06T18:16:39;11.15;85.87
73133;DHT22;61320;52.008;4.530;2022-11-06T18:19:10;11.13;85.42
73133;DHT22;61320;52.008;4.530;2022-11-06T18:22:05;11.23;85.39
73133;DHT22;61320;52.008;4.530;2022-11-06T18:24:39;11.30;85.85
73133;DHT22;61320;52.008;4.530;2022-11-06T18:27:05;11.19;84.67
73133;DHT22;61320;52.008;4.530;2022-11-06T18:29:30;11.06;85.78
73133;DHT22;61320;52.008;4.530;2022-11-06T18:31:55;11.15;85.38
73133;DHT22;61320;52.008;4.530;2022-11-06T18:34:21;11.18;86.06
73133;DHT22;61320;52.008;4.530;2022-11-06T18:36:48;11.13;86.20
73133;DHT22;61320;52.008;4.530;2022-11-06T18:39:14;11.20;85.79
73133;DHT22;61320;52.008;4.530;2022-11-06T18:41:40;11.23;85.62